DEMLV EDJA-
Flight info
| Callsign | DEMLV |
|---|---|
| Flight time | N/A |
| Altitude | |
| Route | |
| Aircraft | BE36 |
Departure
| Time | 2026-05-07 15:46 |
|---|---|
| Airport | Memmingen Allgau Airport (EDJA) |
Arrival
| Time | N/A |
|---|---|
| Airport | - |
| Time | Latitude | Longitude | Altitude | Speed | Heading |
|---|---|---|---|---|---|
| 2026-05-07 15:43 | 47.98817 | 10.24045 | 2072 ft | 25 kts | 59° |
| 2026-05-07 15:44 | 47.98921 | 10.24308 | 2067 ft | 31 kts | 59° |
| 2026-05-07 15:44 | 47.99024 | 10.24569 | 2064 ft | 27 kts | 59° |
| 2026-05-07 15:44 | 47.99120 | 10.24809 | 2060 ft | 26 kts | 59° |
| 2026-05-07 15:44 | 47.99168 | 10.24927 | 2059 ft | 0 kts | 38° |
| 2026-05-07 15:45 | 47.99185 | 10.24926 | 2059 ft | 8 kts | 331° |
| 2026-05-07 15:45 | 47.99244 | 10.24905 | 2059 ft | 13 kts | 48° |
| 2026-05-07 15:45 | 47.99308 | 10.25010 | 2057 ft | 10 kts | 292° |
| 2026-05-07 15:45 | 47.99274 | 10.24943 | 2058 ft | 1 kts | 239° |
| 2026-05-07 15:46 | 47.98983 | 10.24244 | 2096 ft | 91 kts | 244° |
| 2026-05-07 15:46 | 47.98647 | 10.23364 | 2391 ft | 99 kts | 248° |
| 2026-05-07 15:46 | 47.98532 | 10.22377 | 2742 ft | 99 kts | 287° |
| 2026-05-07 15:47 | 47.98969 | 10.21625 | 2988 ft | 97 kts | 337° |
| 2026-05-07 15:47 | 47.99640 | 10.21592 | 3101 ft | 100 kts | 9° |
| 2026-05-07 15:47 | 48.00311 | 10.21866 | 3201 ft | 100 kts | 13° |
| 2026-05-07 15:47 | 48.00977 | 10.22176 | 3284 ft | 100 kts | 14° |
| 2026-05-07 15:48 | 48.01642 | 10.22455 | 3384 ft | 99 kts | 8° |
| 2026-05-07 15:48 | 48.02324 | 10.22604 | 3486 ft | 99 kts | 4° |
| 2026-05-07 15:48 | 48.03013 | 10.22622 | 3574 ft | 100 kts | 343° |
| 2026-05-07 15:48 | 48.03671 | 10.22292 | 3683 ft | 100 kts | 337° |
| 2026-05-07 15:49 | 48.04345 | 10.21917 | 3701 ft | 108 kts | 336° |
| 2026-05-07 15:49 | 48.05113 | 10.21751 | 3720 ft | 117 kts | 6° |
| 2026-05-07 15:49 | 48.05905 | 10.22115 | 3800 ft | 118 kts | 17° |
| 2026-05-07 15:49 | 48.06677 | 10.22525 | 3898 ft | 118 kts | 16° |
| 2026-05-07 15:50 | 48.07453 | 10.22889 | 4004 ft | 114 kts | 10° |
| 2026-05-07 15:50 | 48.08224 | 10.23108 | 4105 ft | 112 kts | 5° |
| 2026-05-07 15:50 | 48.08995 | 10.23308 | 4166 ft | 112 kts | 4° |
| 2026-05-07 15:50 | 48.09761 | 10.23325 | 4209 ft | 114 kts | 341° |
| 2026-05-07 15:51 | 48.10444 | 10.22697 | 4214 ft | 117 kts | 314° |
| 2026-05-07 15:51 | 48.10915 | 10.21647 | 4138 ft | 126 kts | 300° |
| 2026-05-07 15:51 | 48.11278 | 10.20453 | 4139 ft | 128 kts | 291° |
| 2026-05-07 15:51 | 48.11596 | 10.19163 | 4051 ft | 135 kts | 291° |
| 2026-05-07 15:52 | 48.11950 | 10.17847 | 3984 ft | 136 kts | 292° |
| 2026-05-07 15:52 | 48.12362 | 10.16600 | 3986 ft | 133 kts | 302° |
| 2026-05-07 15:52 | 48.12839 | 10.15425 | 3979 ft | 131 kts | 301° |
| 2026-05-07 15:52 | 48.13277 | 10.14245 | 3980 ft | 130 kts | 299° |
| 2026-05-07 15:53 | 48.13729 | 10.13081 | 3977 ft | 129 kts | 299° |
| 2026-05-07 15:53 | 48.14151 | 10.11908 | 3979 ft | 128 kts | 303° |
| 2026-05-07 15:53 | 48.14666 | 10.10826 | 3976 ft | 127 kts | 306° |
| 2026-05-07 15:53 | 48.15267 | 10.09852 | 3973 ft | 128 kts | 320° |
| 2026-05-07 15:54 | 48.16031 | 10.09168 | 3976 ft | 129 kts | 334° |
| 2026-05-07 15:54 | 48.16897 | 10.08829 | 3974 ft | 130 kts | 355° |
| 2026-05-07 15:54 | 48.17801 | 10.08836 | 3974 ft | 129 kts | 358° |
| 2026-05-07 15:54 | 48.18693 | 10.08824 | 4026 ft | 124 kts | 352° |
| 2026-05-07 15:55 | 48.19521 | 10.08690 | 4141 ft | 115 kts | 345° |
| 2026-05-07 15:55 | 48.20305 | 10.08600 | 4256 ft | 112 kts | 359° |
| 2026-05-07 15:55 | 48.21067 | 10.08761 | 4378 ft | 110 kts | 8° |
| 2026-05-07 15:55 | 48.21778 | 10.09163 | 4495 ft | 108 kts | 20° |
| 2026-05-07 15:56 | 48.22470 | 10.09563 | 4623 ft | 106 kts | 15° |
| 2026-05-07 15:56 | 48.23146 | 10.10020 | 4738 ft | 106 kts | 21° |
| 2026-05-07 15:56 | 48.23795 | 10.10521 | 4857 ft | 103 kts | 22° |
| 2026-05-07 15:56 | 48.24422 | 10.11033 | 4964 ft | 102 kts | 22° |
| 2026-05-07 15:57 | 48.25105 | 10.11301 | 4976 ft | 105 kts | 352° |
| 2026-05-07 15:57 | 48.25859 | 10.11323 | 4984 ft | 112 kts | 356° |
| 2026-05-07 15:57 | 48.26654 | 10.11361 | 4984 ft | 117 kts | 358° |
| 2026-05-07 15:57 | 48.27484 | 10.11383 | 4990 ft | 121 kts | 356° |
| 2026-05-07 15:58 | 48.28340 | 10.11378 | 4982 ft | 123 kts | 346° |
| 2026-05-07 15:58 | 48.28933 | 10.10564 | 4987 ft | 121 kts | 287° |
| 2026-05-07 15:58 | 48.29081 | 10.09303 | 4982 ft | 124 kts | 280° |
| 2026-05-07 15:58 | 48.29217 | 10.08013 | 4986 ft | 125 kts | 280° |
| 2026-05-07 15:59 | 48.29348 | 10.06721 | 4991 ft | 125 kts | 279° |
| 2026-05-07 15:59 | 48.29478 | 10.05430 | 4994 ft | 125 kts | 279° |
| 2026-05-07 15:59 | 48.29606 | 10.04139 | 4994 ft | 125 kts | 279° |
| 2026-05-07 15:59 | 48.29732 | 10.02851 | 4995 ft | 126 kts | 279° |
| 2026-05-07 16:00 | 48.29857 | 10.01535 | 4989 ft | 129 kts | 280° |
| 2026-05-07 16:00 | 48.29984 | 10.00198 | 4997 ft | 130 kts | 280° |
| 2026-05-07 16:00 | 48.30111 | 9.98834 | 4996 ft | 133 kts | 280° |
| 2026-05-07 16:00 | 48.30242 | 9.97454 | 4996 ft | 133 kts | 280° |
| 2026-05-07 16:01 | 48.30366 | 9.96079 | 4996 ft | 133 kts | 279° |
| 2026-05-07 16:01 | 48.30496 | 9.94704 | 4995 ft | 132 kts | 279° |
| 2026-05-07 16:01 | 48.30626 | 9.93337 | 4992 ft | 132 kts | 279° |
| 2026-05-07 16:01 | 48.30753 | 9.91973 | 4993 ft | 132 kts | 279° |
| 2026-05-07 16:02 | 48.30881 | 9.90614 | 4996 ft | 132 kts | 279° |
| 2026-05-07 16:02 | 48.31000 | 9.89235 | 4996 ft | 134 kts | 279° |
| 2026-05-07 16:02 | 48.31117 | 9.87845 | 4994 ft | 134 kts | 280° |
| 2026-05-07 16:02 | 48.31235 | 9.86456 | 4991 ft | 134 kts | 279° |
| 2026-05-07 16:03 | 48.31345 | 9.85065 | 4991 ft | 134 kts | 279° |
| 2026-05-07 16:03 | 48.31460 | 9.83696 | 4991 ft | 134 kts | 279° |
| 2026-05-07 16:03 | 48.31580 | 9.82314 | 4987 ft | 133 kts | 278° |
| 2026-05-07 16:03 | 48.31711 | 9.80968 | 4973 ft | 128 kts | 291° |
| 2026-05-07 16:04 | 48.32224 | 9.79916 | 4983 ft | 124 kts | 309° |
| 2026-05-07 16:04 | 48.32763 | 9.78900 | 4979 ft | 123 kts | 308° |
| 2026-05-07 16:04 | 48.33281 | 9.77885 | 4980 ft | 122 kts | 308° |
| 2026-05-07 16:04 | 48.33793 | 9.76879 | 4982 ft | 120 kts | 308° |
| 2026-05-07 16:05 | 48.34300 | 9.75886 | 4984 ft | 119 kts | 308° |
| 2026-05-07 16:05 | 48.34805 | 9.74899 | 4982 ft | 119 kts | 308° |
| 2026-05-07 16:05 | 48.35307 | 9.73918 | 4977 ft | 118 kts | 308° |
| 2026-05-07 16:05 | 48.35800 | 9.72949 | 4976 ft | 115 kts | 308° |
| 2026-05-07 16:06 | 48.36285 | 9.72011 | 4977 ft | 112 kts | 308° |
| 2026-05-07 16:06 | 48.36758 | 9.71104 | 4979 ft | 108 kts | 308° |
| 2026-05-07 16:06 | 48.37207 | 9.70229 | 4959 ft | 103 kts | 306° |
| 2026-05-07 16:06 | 48.37633 | 9.69391 | 4959 ft | 101 kts | 308° |
| 2026-05-07 16:07 | 48.38069 | 9.68547 | 4962 ft | 103 kts | 308° |
| 2026-05-07 16:07 | 48.38509 | 9.67685 | 4962 ft | 103 kts | 307° |
| 2026-05-07 16:07 | 48.38951 | 9.66828 | 4961 ft | 104 kts | 308° |
| 2026-05-07 16:07 | 48.39396 | 9.65961 | 4961 ft | 105 kts | 307° |
| 2026-05-07 16:08 | 48.39844 | 9.65083 | 4973 ft | 107 kts | 308° |
| 2026-05-07 16:08 | 48.40298 | 9.64185 | 4978 ft | 109 kts | 308° |
| 2026-05-07 16:08 | 48.40763 | 9.63258 | 4977 ft | 113 kts | 308° |
| 2026-05-07 16:08 | 48.41242 | 9.62309 | 4978 ft | 116 kts | 307° |
| 2026-05-07 16:09 | 48.41730 | 9.61342 | 4979 ft | 116 kts | 308° |
| 2026-05-07 16:09 | 48.42212 | 9.60384 | 4976 ft | 114 kts | 308° |
| 2026-05-07 16:09 | 48.42689 | 9.59441 | 4976 ft | 113 kts | 307° |
| 2026-05-07 16:09 | 48.43161 | 9.58506 | 4968 ft | 112 kts | 307° |
| 2026-05-07 16:10 | 48.43636 | 9.57585 | 4962 ft | 111 kts | 307° |
| 2026-05-07 16:10 | 48.44109 | 9.56677 | 4957 ft | 109 kts | 308° |
| 2026-05-07 16:10 | 48.44561 | 9.55797 | 4962 ft | 103 kts | 308° |
| 2026-05-07 16:10 | 48.44993 | 9.54950 | 4957 ft | 102 kts | 307° |
| 2026-05-07 16:11 | 48.45429 | 9.54102 | 4959 ft | 103 kts | 308° |
| 2026-05-07 16:11 | 48.45873 | 9.53243 | 4960 ft | 104 kts | 308° |
| 2026-05-07 16:11 | 48.46321 | 9.52377 | 4964 ft | 106 kts | 307° |
| 2026-05-07 16:11 | 48.46782 | 9.51486 | 4969 ft | 109 kts | 307° |
| 2026-05-07 16:12 | 48.47094 | 9.50888 | 4970 ft | 110 kts | 308° |
| 2026-05-07 16:12 | 48.47570 | 9.49973 | 4974 ft | 112 kts | 307° |
| 2026-05-07 16:12 | 48.48052 | 9.49044 | 4975 ft | 113 kts | 308° |
| 2026-05-07 16:12 | 48.48544 | 9.48099 | 4974 ft | 116 kts | 308° |
| 2026-05-07 16:13 | 48.49050 | 9.47121 | 4973 ft | 121 kts | 308° |
| 2026-05-07 16:13 | 48.49573 | 9.46096 | 4982 ft | 125 kts | 307° |
| 2026-05-07 16:13 | 48.50124 | 9.45040 | 4975 ft | 130 kts | 308° |
| 2026-05-07 16:13 | 48.50687 | 9.43964 | 4972 ft | 132 kts | 309° |
| 2026-05-07 16:14 | 48.51266 | 9.42862 | 4927 ft | 136 kts | 306° |
| 2026-05-07 16:14 | 48.51841 | 9.41686 | 4669 ft | 141 kts | 308° |
| 2026-05-07 16:14 | 48.52219 | 9.40328 | 4423 ft | 150 kts | 269° |
| 2026-05-07 16:14 | 48.51980 | 9.38751 | 4196 ft | 158 kts | 259° |
| 2026-05-07 16:15 | 48.51683 | 9.37119 | 3970 ft | 164 kts | 256° |
| 2026-05-07 16:15 | 48.51380 | 9.35473 | 3706 ft | 162 kts | 263° |
| 2026-05-07 16:15 | 48.51434 | 9.33825 | 3470 ft | 153 kts | 290° |
| 2026-05-07 16:15 | 48.52148 | 9.32827 | 3479 ft | 141 kts | 346° |
| 2026-05-07 16:16 | 48.53029 | 9.33249 | 3478 ft | 140 kts | 44° |
| 2026-05-07 16:16 | 48.53334 | 9.34628 | 3479 ft | 139 kts | 80° |
| 2026-05-07 16:16 | 48.53469 | 9.36051 | 3476 ft | 135 kts | 73° |
| 2026-05-07 16:16 | 48.54058 | 9.36972 | 3483 ft | 121 kts | 10° |
| 2026-05-07 16:17 | 48.54841 | 9.36744 | 3479 ft | 116 kts | 322° |
| 2026-05-07 16:17 | 48.55390 | 9.35850 | 3481 ft | 116 kts | 309° |
| 2026-05-07 16:17 | 48.55834 | 9.34850 | 3479 ft | 113 kts | 305° |
| 2026-05-07 16:17 | 48.56253 | 9.33866 | 3478 ft | 111 kts | 304° |
| 2026-05-07 16:18 | 48.56658 | 9.32912 | 3482 ft | 106 kts | 304° |
| 2026-05-07 16:18 | 48.57061 | 9.31978 | 3484 ft | 106 kts | 304° |
| 2026-05-07 16:18 | 48.57462 | 9.31041 | 3486 ft | 106 kts | 304° |
| 2026-05-07 16:18 | 48.57863 | 9.30106 | 3484 ft | 106 kts | 304° |
| 2026-05-07 16:19 | 48.58260 | 9.29165 | 3483 ft | 107 kts | 304° |
| 2026-05-07 16:19 | 48.58645 | 9.28231 | 3485 ft | 103 kts | 303° |
| 2026-05-07 16:19 | 48.59019 | 9.27325 | 3488 ft | 100 kts | 304° |
| 2026-05-07 16:19 | 48.59437 | 9.26513 | 3486 ft | 96 kts | 314° |
| 2026-05-07 16:20 | 48.59901 | 9.25787 | 3487 ft | 96 kts | 311° |
| 2026-05-07 16:20 | 48.60291 | 9.24985 | 3483 ft | 93 kts | 304° |
| 2026-05-07 16:20 | 48.60632 | 9.24192 | 3484 ft | 87 kts | 317° |
| 2026-05-07 16:20 | 48.61187 | 9.24050 | 3489 ft | 84 kts | 354° |
| 2026-05-07 16:21 | 48.61773 | 9.23994 | 3491 ft | 86 kts | 355° |
| 2026-05-07 16:21 | 48.62381 | 9.23949 | 3499 ft | 89 kts | 354° |
| 2026-05-07 16:21 | 48.63021 | 9.23902 | 3428 ft | 99 kts | 354° |
| 2026-05-07 16:21 | 48.63771 | 9.23838 | 3224 ft | 116 kts | 355° |
| 2026-05-07 16:22 | 48.64609 | 9.23720 | 3073 ft | 121 kts | 352° |
| 2026-05-07 16:22 | 48.65430 | 9.23518 | 2998 ft | 119 kts | 347° |
| 2026-05-07 16:22 | 48.66231 | 9.23723 | 2918 ft | 125 kts | 31° |
| 2026-05-07 16:22 | 48.66699 | 9.24895 | 2728 ft | 140 kts | 73° |
| 2026-05-07 16:23 | 48.66814 | 9.26344 | 2654 ft | 138 kts | 80° |
| 2026-05-07 16:23 | 48.66975 | 9.27768 | 2556 ft | 135 kts | 63° |
| 2026-05-07 16:23 | 48.67536 | 9.28673 | 2394 ft | 105 kts | 19° |
| 2026-05-07 16:23 | 48.68175 | 9.28782 | 2261 ft | 83 kts | 355° |
| 2026-05-07 16:24 | 48.68733 | 9.28736 | 2165 ft | 80 kts | 354° |
| 2026-05-07 16:24 | 48.69280 | 9.28599 | 2025 ft | 78 kts | 341° |
| 2026-05-07 16:24 | 48.69704 | 9.28105 | 1875 ft | 82 kts | 303° |
| 2026-05-07 16:24 | 48.69824 | 9.27271 | 1795 ft | 79 kts | 274° |
| 2026-05-07 16:25 | 48.69752 | 9.26429 | 1690 ft | 83 kts | 261° |
| 2026-05-07 16:25 | 48.69615 | 9.25577 | 1545 ft | 84 kts | 259° |
| 2026-05-07 16:25 | 48.69461 | 9.24720 | 1399 ft | 84 kts | 262° |
| 2026-05-07 16:25 | 48.69318 | 9.23947 | 1281 ft | 62 kts | 258° |
| 2026-05-07 16:26 | 48.69226 | 9.23451 | 1280 ft | 40 kts | 253° |
| 2026-05-07 16:26 | 48.69164 | 9.23117 | 1280 ft | 25 kts | 252° |
| 2026-05-07 16:26 | 48.69117 | 9.22875 | 1280 ft | 27 kts | 257° |
| 2026-05-07 16:26 | 48.69072 | 9.22607 | 1280 ft | 15 kts | 258° |
| 2026-05-07 16:27 | 48.69105 | 9.22541 | 1280 ft | 6 kts | 344° |
| 2026-05-07 16:27 | 48.69148 | 9.22524 | 1279 ft | 5 kts | 342° |
| 2026-05-07 16:27 | 48.69158 | 9.22519 | 1279 ft | 0 kts | 343° |
| 2026-05-07 16:28 | 48.69194 | 9.22503 | 1279 ft | 11 kts | 343° |
| 2026-05-07 16:28 | 48.69277 | 9.22457 | 1279 ft | 14 kts | 315° |
| 2026-05-07 16:28 | 48.69267 | 9.22295 | 1279 ft | 19 kts | 255° |
| 2026-05-07 16:28 | 48.69227 | 9.22085 | 1279 ft | 23 kts | 254° |
| 2026-05-07 16:29 | 48.69184 | 9.21858 | 1279 ft | 23 kts | 253° |
| 2026-05-07 16:29 | 48.69136 | 9.21611 | 1280 ft | 24 kts | 254° |
| 2026-05-07 16:29 | 48.69101 | 9.21430 | 1280 ft | 12 kts | 252° |
| 2026-05-07 16:29 | 48.69075 | 9.21278 | 1280 ft | 17 kts | 261° |
| 2026-05-07 16:30 | 48.69065 | 9.21231 | 1280 ft | 0 kts | 255° |
| 2026-05-07 16:30 | 48.69046 | 9.21132 | 1280 ft | 10 kts | 257° |
| 2026-05-07 16:31 | 48.69083 | 9.21031 | 1280 ft | 12 kts | 317° |
| 2026-05-07 16:31 | 48.69126 | 9.21094 | 1280 ft | 13 kts | 75° |
| 2026-05-07 16:31 | 48.69151 | 9.21197 | 1279 ft | 6 kts | 37° |
| 2026-05-07 16:31 | 48.69173 | 9.21209 | 1279 ft | 0 kts | 17° |